Time;durP1;ratioP1;P1;durP2;ratioP2;P2;SDS_P1;SDS_P2;PMS_P1;PMS_P2;Temp;Humidity;BMP_temperature;BMP_pressure;BME280_temperature;BME280_humidity;BME280_pressure;Samples;Min_cycle;Max_cycle;Signal;HPM_P1;HPM_P2
2023/06/02 00:00:21;;;;;;;11.68;7.35;;;12.60;99.90;;;;;;1972169;28;20080;-62
2023/06/02 00:01:18;;;;;;;14.43;7.65;;;12.50;99.90;;;;;;1970686;28;20028;-62
2023/06/02 00:02:16;;;;;;;8.90;7.30;;;12.50;99.90;;;;;;1969712;28;20283;-61
2023/06/02 00:03:14;;;;;;;10.32;7.72;;;12.50;99.90;;;;;;1971148;28;20066;-61
2023/06/02 00:04:12;;;;;;;12.40;8.52;;;12.50;99.90;;;;;;1972619;28;20104;-62
2023/06/02 00:05:09;;;;;;;13.25;8.43;;;12.60;99.90;;;;;;1971924;28;20017;-62
2023/06/02 00:06:09;;;;;;;13.85;8.52;;;12.50;99.90;;;;;;1970016;28;20018;-62
2023/06/02 00:07:07;;;;;;;11.63;7.70;;;12.60;99.90;;;;;;1962086;28;20025;-62
2023/06/02 00:08:05;;;;;;;12.32;8.15;;;12.50;99.90;;;;;;1963295;28;20113;-62
2023/06/02 00:09:06;;;;;;;11.75;8.15;;;12.50;99.90;;;;;;1962251;28;20021;-62
2023/06/02 00:10:03;;;;;;;11.32;8.43;;;12.50;99.90;;;;;;1954404;28;20523;-61
2023/06/02 00:11:01;;;;;;;12.90;8.82;;;12.50;99.90;;;;;;1955709;28;20133;-62
2023/06/02 00:11:59;;;;;;;15.65;8.40;;;12.50;99.90;;;;;;1960169;28;20072;-61
2023/06/02 00:12:56;;;;;;;15.02;9.63;;;12.50;99.90;;;;;;1968281;28;20033;-62
2023/06/02 00:13:54;;;;;;;12.98;8.75;;;12.40;99.90;;;;;;1969535;28;20109;-61
2023/06/02 00:14:52;;;;;;;13.18;9.43;;;12.40;99.90;;;;;;1970818;28;20028;-62
2023/06/02 00:15:50;;;;;;;11.88;9.00;;;12.40;99.90;;;;;;1972424;28;20678;-62
2023/06/02 00:16:48;;;;;;;17.27;9.63;;;12.40;99.90;;;;;;1968709;28;20045;-62
2023/06/02 00:17:46;;;;;;;12.35;9.52;;;12.30;99.90;;;;;;1971562;28;20633;-62
2023/06/02 00:18:43;;;;;;;15.13;9.45;;;12.30;99.90;;;;;;1964017;28;20114;-62
2023/06/02 00:19:42;;;;;;;12.68;10.35;;;12.40;99.90;;;;;;1964268;28;20022;-62
2023/06/02 00:20:41;;;;;;;13.50;9.25;;;12.40;99.90;;;;;;1969888;28;20101;-62
2023/06/02 00:21:38;;;;;;;15.00;10.85;;;12.40;99.90;;;;;;1971879;28;20009;-61
2023/06/02 00:22:38;;;;;;;14.20;10.18;;;12.40;99.90;;;;;;1964018;28;20053;-62
2023/06/02 00:23:35;;;;;;;17.15;10.32;;;12.40;99.90;;;;;;1947829;28;20134;-61
2023/06/02 00:24:33;;;;;;;16.27;9.65;;;12.40;99.90;;;;;;1951095;28;20068;-62
2023/06/02 00:25:32;;;;;;;14.75;10.55;;;12.40;99.90;;;;;;1966324;28;20034;-61
2023/06/02 00:26:30;;;;;;;15.52;10.13;;;12.40;99.90;;;;;;1970795;28;20141;-61
2023/06/02 00:27:27;;;;;;;12.18;9.07;;;12.30;99.90;;;;;;1970889;28;20053;-62
2023/06/02 00:28:25;;;;;;;14.25;8.85;;;12.30;99.90;;;;;;1973070;28;20028;-62
2023/06/02 00:29:22;;;;;;;13.73;8.25;;;13.30;99.90;;;;;;1970519;28;20421;-62
2023/06/02 00:30:20;;;;;;;12.60;7.95;;;12.30;99.90;;;;;;1972260;28;20571;-62
2023/06/02 00:31:18;;;;;;;11.30;7.55;;;12.30;99.90;;;;;;1972642;28;20101;-61
2023/06/02 00:32:15;;;;;;;11.90;7.93;;;12.30;99.90;;;;;;1964929;28;20109;-62
2023/06/02 00:33:13;;;;;;;10.52;7.38;;;12.30;99.90;;;;;;1963080;28;20073;-61
2023/06/02 00:34:10;;;;;;;19.02;8.20;;;12.30;99.90;;;;;;1954879;28;20065;-61
2023/06/02 00:35:08;;;;;;;11.82;7.57;;;12.30;99.90;;;;;;1955441;28;20522;-62
2023/06/02 00:36:06;;;;;;;11.13;6.78;;;12.20;99.90;;;;;;1969099;28;20095;-62
2023/06/02 00:37:03;;;;;;;9.35;7.05;;;12.30;99.90;;;;;;1956709;28;20070;-61
2023/06/02 00:38:04;;;;;;;14.98;8.07;;;12.30;99.90;;;;;;1963201;28;20036;-62
2023/06/02 00:39:02;;;;;;;11.15;7.13;;;12.30;99.90;;;;;;1971193;28;20030;-61
2023/06/02 00:39:59;;;;;;;15.15;7.80;;;12.30;99.90;;;;;;1969565;28;20211;-62
2023/06/02 00:40:57;;;;;;;11.55;7.05;;;12.30;99.90;;;;;;1969641;28;20025;-61
2023/06/02 00:41:55;;;;;;;10.82;7.80;;;12.30;99.90;;;;;;1970062;28;20493;-62
2023/06/02 00:42:52;;;;;;;10.93;7.28;;;12.30;99.90;;;;;;1970995;28;20022;-62
2023/06/02 00:43:50;;;;;;;11.75;8.18;;;12.20;99.90;;;;;;1971130;28;21977;-61
2023/06/02 00:44:47;;;;;;;13.68;7.90;;;12.10;99.90;;;;;;1961844;28;20129;-62
2023/06/02 00:45:45;;;;;;;13.63;8.05;;;12.10;99.90;;;;;;1956314;28;20109;-61
2023/06/02 00:46:42;;;;;;;18.63;8.85;;;12.10;99.90;;;;;;1947036;28;20166;-62
2023/06/02 00:47:40;;;;;;;18.70;9.30;;;12.20;99.90;;;;;;1956066;28;20065;-62
2023/06/02 00:48:37;;;;;;;17.50;8.93;;;12.10;99.90;;;;;;1963164;28;20049;-62
2023/06/02 00:49:35;;;;;;;16.50;9.05;;;12.10;99.90;;;;;;1979051;28;20037;-62
2023/06/02 00:50:32;;;;;;;15.20;8.20;;;12.10;99.90;;;;;;1967824;28;20431;-61
2023/06/02 00:51:30;;;;;;;15.77;9.27;;;12.10;99.90;;;;;;1963799;28;20044;-61
2023/06/02 00:52:27;;;;;;;14.18;9.60;;;13.30;99.90;;;;;;1971207;28;20031;-62
2023/06/02 00:53:25;;;;;;;16.38;9.32;;;12.20;99.90;;;;;;1971711;28;20025;-62
2023/06/02 00:54:23;;;;;;;13.15;9.70;;;12.10;99.90;;;;;;1971046;28;20475;-62
2023/06/02 00:55:20;;;;;;;16.55;9.45;;;12.00;99.90;;;;;;1969727;28;20033;-61
2023/06/02 00:56:20;;;;;;;17.40;9.27;;;12.10;99.90;;;;;;1969517;28;21498;-61
2023/06/02 00:57:18;;;;;;;14.23;9.82;;;12.10;99.90;;;;;;1962347;28;20038;-62
2023/06/02 00:58:16;;;;;;;21.75;10.70;;;12.00;99.90;;;;;;1964429;28;20382;-62
2023/06/02 00:59:14;;;;;;;17.27;9.57;;;12.00;99.90;;;;;;1969311;28;20022;-62
2023/06/02 01:00:12;;;;;;;14.68;9.65;;;12.00;99.90;;;;;;1963766;28;20430;-62
2023/06/02 01:01:11;;;;;;;19.73;10.30;;;12.00;99.90;;;;;;1963165;28;20037;-62
2023/06/02 01:02:08;;;;;;;16.05;9.88;;;11.90;99.90;;;;;;1960484;28;20072;-61
2023/06/02 01:03:07;;;;;;;12.95;9.52;;;12.00;99.90;;;;;;1967405;28;20021;-61
2023/06/02 01:04:05;;;;;;;16.35;10.82;;;12.00;99.90;;;;;;1968194;28;20667;-62
2023/06/02 01:05:06;;;;;;;14.93;10.80;;;12.00;99.90;;;;;;1971260;28;20724;-62
2023/06/02 01:06:04;;;;;;;17.50;10.85;;;12.00;99.90;;;;;;1971462;28;20022;-62
2023/06/02 01:07:02;;;;;;;13.73;9.73;;;12.00;99.90;;;;;;1969524;28;20030;-61
2023/06/02 01:08:01;;;;;;;14.95;10.55;;;12.00;99.90;;;;;;1970826;28;20105;-62
2023/06/02 01:08:58;;;;;;;17.77;11.23;;;12.00;99.90;;;;;;1969122;28;20060;-62
2023/06/02 01:09:58;;;;;;;21.30;10.35;;;12.00;99.90;;;;;;1968236;28;20478;-62
2023/06/02 01:10:55;;;;;;;15.57;10.07;;;12.00;99.90;;;;;;1964073;28;20049;-62
2023/06/02 01:11:53;;;;;;;15.98;9.82;;;12.00;99.90;;;;;;1959468;28;20423;-61
2023/06/02 01:12:51;;;;;;;14.98;10.20;;;11.90;99.90;;;;;;1959358;28;20096;-61
2023/06/02 01:13:48;;;;;;;15.93;9.38;;;11.90;99.90;;;;;;1957079;28;20085;-61
2023/06/02 01:14:46;;;;;;;16.08;9.20;;;11.90;99.90;;;;;;1960757;28;20453;-61
2023/06/02 01:15:47;;;;;;;13.82;9.88;;;11.90;99.90;;;;;;1959519;28;20530;-62
2023/06/02 01:16:44;;;;;;;20.02;9.43;;;11.90;99.90;;;;;;1966875;28;20132;-61
2023/06/02 01:17:45;;;;;;;14.95;9.68;;;11.90;99.90;;;;;;1970720;28;20489;-61
2023/06/02 01:18:45;;;;;;;13.63;9.27;;;11.90;99.90;;;;;;1971703;28;20398;-61
2023/06/02 01:19:43;;;;;;;17.48;9.65;;;11.90;99.90;;;;;;1971962;28;20022;-62
2023/06/02 01:20:49;;;;;;;18.63;9.57;;;11.90;99.90;;;;;;1961166;28;20018;-62
2023/06/02 01:21:57;;;;;;;19.23;9.32;;;11.90;99.90;;;;;;1962948;28;20475;-62
2023/06/02 01:23:01;;;;;;;14.18;9.05;;;11.90;99.90;;;;;;1960263;28;20029;-62
2023/06/02 01:23:59;;;;;;;20.75;10.15;;;11.80;99.90;;;;;;1970078;28;20096;-61
2023/06/02 01:25:00;;;;;;;17.40;8.30;;;11.80;99.90;;;;;;1968589;28;20124;-61
2023/06/02 01:25:57;;;;;;;18.83;9.93;;;11.90;99.90;;;;;;1968062;28;20030;-62
2023/06/02 01:26:55;;;;;;;14.73;8.80;;;11.80;99.90;;;;;;1968489;28;20056;-61
2023/06/02 01:27:56;;;;;;;16.05;8.45;;;11.80;99.90;;;;;;1968605;28;20155;-61
2023/06/02 01:28:54;;;;;;;17.90;8.95;;;11.80;99.90;;;;;;1971312;28;21246;-62
2023/06/02 01:29:54;;;;;;;15.70;8.82;;;11.80;99.90;;;;;;1970450;28;20067;-62
2023/06/02 01:31:02;;;;;;;12.43;7.95;;;11.80;99.90;;;;;;1970428;28;20033;-61
2023/06/02 01:32:00;;;;;;;16.38;8.77;;;11.80;99.90;;;;;;1970786;28;20026;-62
2023/06/02 01:33:06;;;;;;;11.90;7.50;;;11.80;99.90;;;;;;1957192;28;20556;-62
2023/06/02 01:34:10;;;;;;;15.65;7.05;;;11.80;99.90;;;;;;1963622;28;20026;-62
2023/06/02 01:35:09;;;;;;;12.80;7.20;;;11.80;99.90;;;;;;1954993;28;20026;-62
2023/06/02 01:36:06;;;;;;;14.60;6.90;;;11.80;99.90;;;;;;1952404;28;20507;-61
2023/06/02 01:37:04;;;;;;;13.43;6.47;;;11.80;99.90;;;;;;1969268;28;20156;-61
2023/06/02 01:38:01;;;;;;;14.88;6.72;;;11.80;99.90;;;;;;1969744;28;20648;-62
2023/06/02 01:38:59;;;;;;;15.63;7.18;;;11.80;99.90;;;;;;1964706;28;20026;-62
2023/06/02 01:39:57;;;;;;;11.63;7.20;;;11.80;99.90;;;;;;1952362;28;20023;-62
2023/06/02 01:40:55;;;;;;;9.15;6.25;;;11.70;99.90;;;;;;1968924;28;20029;-62
2023/06/02 01:41:53;;;;;;;16.30;7.20;;;11.70;99.90;;;;;;1969743;28;20026;-62
2023/06/02 01:42:51;;;;;;;14.85;6.70;;;11.80;99.90;;;;;;1958215;28;20314;-62
2023/06/02 01:43:49;;;;;;;15.05;6.68;;;11.70;99.90;;;;;;1959706;28;20030;-61
2023/06/02 01:44:47;;;;;;;9.73;6.00;;;11.70;99.90;;;;;;1961638;28;20026;-61
2023/06/02 01:45:44;;;;;;;11.45;6.80;;;11.80;99.90;;;;;;1955067;28;20055;-61
2023/06/02 01:46:44;;;;;;;9.60;6.47;;;11.80;99.90;;;;;;1941738;28;20082;-62
2023/06/02 01:47:42;;;;;;;9.32;6.43;;;11.70;99.90;;;;;;1950775;28;20066;-62
2023/06/02 01:48:40;;;;;;;11.85;6.88;;;11.80;99.90;;;;;;1970430;28;20121;-62
2023/06/02 01:49:37;;;;;;;12.07;7.40;;;11.80;99.90;;;;;;1972721;28;20031;-61
2023/06/02 01:50:36;;;;;;;12.75;7.43;;;11.70;99.90;;;;;;1962074;28;20052;-62
2023/06/02 01:51:34;;;;;;;18.38;8.45;;;11.70;99.90;;;;;;1956411;28;20026;-62
2023/06/02 01:52:32;;;;;;;20.52;7.72;;;11.70;99.90;;;;;;1960119;28;20340;-62
2023/06/02 01:53:29;;;;;;;12.60;7.75;;;11.70;99.90;;;;;;1970645;28;20025;-62
2023/06/02 01:54:27;;;;;;;14.82;8.80;;;11.70;99.90;;;;;;1971919;28;20470;-62
2023/06/02 01:55:25;;;;;;;15.88;7.75;;;11.70;99.90;;;;;;1968310;28;20760;-62
2023/06/02 01:56:23;;;;;;;12.90;7.15;;;11.70;99.90;;;;;;1968486;28;20136;-62
2023/06/02 01:57:22;;;;;;;14.02;7.40;;;11.70;99.90;;;;;;1968658;28;20022;-62
2023/06/02 01:58:20;;;;;;;10.90;6.97;;;11.70;99.90;;;;;;1969953;28;20022;-62
2023/06/02 01:59:18;;;;;;;9.75;6.35;;;11.60;99.90;;;;;;1962095;28;20026;-62
2023/06/02 02:00:16;;;;;;;12.13;6.40;;;11.70;99.90;;;;;;1966517;28;20025;-62
2023/06/02 02:01:13;;;;;;;8.27;6.20;;;11.60;99.90;;;;;;1970687;28;20412;-61
2023/06/02 02:02:11;;;;;;;10.70;6.95;;;11.70;99.90;;;;;;1972159;28;20045;-61
2023/06/02 02:03:09;;;;;;;10.35;6.32;;;11.70;99.90;;;;;;1969575;28;20454;-62
2023/06/02 02:04:07;;;;;;;16.60;6.78;;;11.70;99.90;;;;;;1969573;28;20034;-62
2023/06/02 02:05:04;;;;;;;10.23;5.47;;;11.60;99.90;;;;;;1971008;28;20056;-62
2023/06/02 02:06:03;;;;;;;9.15;5.93;;;11.70;99.90;;;;;;1963202;28;20048;-62
2023/06/02 02:07:01;;;;;;;9.40;5.95;;;11.70;99.90;;;;;;1963205;28;20120;-62
2023/06/02 02:07:59;;;;;;;13.55;5.80;;;11.60;99.90;;;;;;1972747;28;20405;-62
2023/06/02 02:08:57;;;;;;;12.50;5.28;;;11.60;99.90;;;;;;1969449;28;20077;-62
2023/06/02 02:09:56;;;;;;;10.57;5.47;;;11.60;99.90;;;;;;1970977;28;20076;-62
2023/06/02 02:10:54;;;;;;;10.30;6.25;;;11.60;99.90;;;;;;1970066;28;20030;-62
2023/06/02 02:11:51;;;;;;;14.25;5.93;;;11.50;99.90;;;;;;1971298;28;20041;-61
2023/06/02 02:12:49;;;;;;;12.98;4.95;;;11.50;99.90;;;;;;1969264;28;20549;-62
2023/06/02 02:13:47;;;;;;;12.18;5.88;;;11.60;99.90;;;;;;1969779;28;20125;-62
2023/06/02 02:14:50;;;;;;;10.88;6.15;;;11.60;99.90;;;;;;1968286;28;20030;-62
2023/06/02 02:15:47;;;;;;;11.35;5.90;;;11.50;99.90;;;;;;1971256;28;20083;-62
2023/06/02 02:16:49;;;;;;;15.27;6.10;;;11.50;99.90;;;;;;1972622;28;20099;-61
2023/06/02 02:17:47;;;;;;;;;;;11.40;99.90;;;;;;1972722;28;20060;-62
2023/06/02 02:18:46;;;;;;;11.55;6.50;;;11.50;99.90;;;;;;1973529;28;19916;-62
2023/06/02 02:19:45;;;;;;;13.02;6.45;;;11.50;99.90;;;;;;1972568;28;20022;-62
2023/06/02 02:20:42;;;;;;;14.57;7.53;;;11.50;99.90;;;;;;1972006;28;20079;-61
2023/06/02 02:21:40;;;;;;;11.07;6.80;;;11.50;99.90;;;;;;1973100;28;20103;-62
2023/06/02 02:22:38;;;;;;;10.43;6.47;;;11.50;99.90;;;;;;1970805;28;20160;-62
2023/06/02 02:23:35;;;;;;;14.13;7.57;;;11.50;99.90;;;;;;1971722;28;20021;-62
2023/06/02 02:24:33;;;;;;;8.65;6.05;;;11.50;99.90;;;;;;1972381;28;20433;-62
2023/06/02 02:25:30;;;;;;;13.40;6.95;;;11.40;99.90;;;;;;1970970;28;20474;-62
2023/06/02 02:26:28;;;;;;;12.63;7.05;;;11.50;99.90;;;;;;1970032;28;20036;-62
2023/06/02 02:27:25;;;;;;;20.90;7.55;;;11.40;99.90;;;;;;1972306;28;20386;-62
2023/06/02 02:28:23;;;;;;;12.82;6.82;;;11.40;99.90;;;;;;1971252;28;20021;-62
2023/06/02 02:29:20;;;;;;;14.35;6.47;;;11.40;99.90;;;;;;1972854;28;20052;-62
2023/06/02 02:30:19;;;;;;;16.08;7.53;;;11.40;99.90;;;;;;1968269;28;20101;-62
2023/06/02 02:31:17;;;;;;;13.68;7.47;;;11.40;99.90;;;;;;1971297;28;20021;-61
2023/06/02 02:32:14;;;;;;;17.70;6.82;;;11.30;99.90;;;;;;1971563;28;20021;-62
2023/06/02 02:33:12;;;;;;;12.25;6.78;;;11.30;99.90;;;;;;1961601;28;20034;-62
2023/06/02 02:34:10;;;;;;;11.48;7.13;;;11.30;99.90;;;;;;1966305;28;20037;-62
2023/06/02 02:35:07;;;;;;;9.50;6.72;;;11.30;99.90;;;;;;1974334;28;20331;-61
2023/06/02 02:36:05;;;;;;;14.88;7.60;;;11.30;99.90;;;;;;1969893;28;20022;-62
2023/06/02 02:37:03;;;;;;;11.75;7.85;;;11.30;99.90;;;;;;1970445;28;20041;-62
2023/06/02 02:38:01;;;;;;;12.48;7.65;;;11.30;99.90;;;;;;1972694;28;20355;-62
2023/06/02 02:38:58;;;;;;;14.40;8.48;;;11.30;99.90;;;;;;1972179;28;20039;-62
2023/06/02 02:39:56;;;;;;;14.32;8.00;;;11.30;99.90;;;;;;1971547;28;20030;-62
2023/06/02 02:40:53;;;;;;;11.60;7.95;;;11.30;99.90;;;;;;1970753;28;20029;-62
2023/06/02 02:41:51;;;;;;;16.23;8.40;;;11.30;99.90;;;;;;1975816;28;20029;-62
2023/06/02 02:42:48;;;;;;;14.35;8.00;;;11.30;99.90;;;;;;1970506;28;20030;-62
2023/06/02 02:43:46;;;;;;;15.93;8.23;;;11.30;99.90;;;;;;1972716;28;20038;-62
2023/06/02 02:44:43;;;;;;;14.95;7.90;;;11.30;99.90;;;;;;1971087;28;20029;-62
2023/06/02 02:45:41;;;;;;;13.70;7.55;;;11.20;99.90;;;;;;1971768;28;20048;-62
2023/06/02 02:46:38;;;;;;;16.65;7.68;;;11.20;99.90;;;;;;1969279;28;20126;-62
2023/06/02 02:47:36;;;;;;;15.43;7.57;;;11.20;99.90;;;;;;1971881;28;20081;-62
2023/06/02 02:48:34;;;;;;;17.73;8.07;;;11.20;99.90;;;;;;1972152;28;20033;-62
2023/06/02 02:49:31;;;;;;;17.33;9.15;;;11.20;99.90;;;;;;1965211;28;20084;-62
2023/06/02 02:50:29;;;;;;;15.82;7.93;;;11.20;99.90;;;;;;1961384;28;20100;-62
2023/06/02 02:51:26;;;;;;;17.55;8.77;;;11.20;99.90;;;;;;1971560;28;20053;-62
2023/06/02 02:52:24;;;;;;;15.13;8.43;;;11.20;99.90;;;;;;1971987;28;20075;-62
2023/06/02 02:53:21;;;;;;;16.52;8.82;;;11.20;99.90;;;;;;1972587;28;20052;-62
2023/06/02 02:54:19;;;;;;;21.02;9.35;;;11.10;99.90;;;;;;1972166;28;20024;-61
2023/06/02 02:55:17;;;;;;;15.55;8.73;;;11.10;99.90;;;;;;1964633;28;20054;-62
2023/06/02 02:56:14;;;;;;;25.77;9.02;;;11.20;99.90;;;;;;1962611;28;20105;-61
2023/06/02 02:57:12;;;;;;;24.38;9.45;;;11.10;99.90;;;;;;1962638;28;20101;-61
2023/06/02 02:58:10;;;;;;;13.23;8.82;;;11.10;99.90;;;;;;1963725;28;20402;-62
2023/06/02 02:59:07;;;;;;;23.45;9.60;;;11.10;99.90;;;;;;1973432;28;20108;-61
2023/06/02 03:00:09;;;;;;;18.02;8.82;;;11.10;99.90;;;;;;1969950;28;20018;-61
2023/06/02 03:01:15;;;;;;;19.27;7.90;;;11.00;99.90;;;;;;1969130;28;20029;-61
2023/06/02 03:02:12;;;;;;;21.42;8.93;;;11.10;99.90;;;;;;1970625;28;20095;-62
2023/06/02 03:03:10;;;;;;;20.55;8.40;;;11.10;99.90;;;;;;1971643;28;20048;-62
2023/06/02 03:04:07;;;;;;;15.73;8.05;;;11.10;99.90;;;;;;1972545;28;20066;-62
2023/06/02 03:05:06;;;;;;;17.52;8.63;;;11.10;99.90;;;;;;1975848;28;20024;-61
2023/06/02 03:06:05;;;;;;;17.17;8.13;;;11.10;99.90;;;;;;1971654;28;20398;-62
2023/06/02 03:07:02;;;;;;;15.23;8.15;;;11.10;99.90;;;;;;1971942;28;20050;-61
2023/06/02 03:08:01;;;;;;;17.52;8.35;;;11.10;99.90;;;;;;1972544;28;20479;-61
2023/06/02 03:08:59;;;;;;;18.55;8.60;;;11.10;99.90;;;;;;1971446;28;20044;-61
2023/06/02 03:09:56;;;;;;;13.95;9.10;;;11.10;99.90;;;;;;1973409;28;20040;-62
2023/06/02 03:10:54;;;;;;;17.70;8.63;;;11.00;99.90;;;;;;1968953;28;20029;-62
2023/06/02 03:11:51;;;;;;;13.98;7.72;;;11.00;99.90;;;;;;1972046;28;20034;-62
2023/06/02 03:12:49;;;;;;;15.27;8.00;;;11.00;99.90;;;;;;1971628;28;20442;-61
2023/06/02 03:13:47;;;;;;;18.70;8.02;;;11.00;99.90;;;;;;1973512;28;20043;-62
2023/06/02 03:14:44;;;;;;;13.75;7.55;;;11.00;99.90;;;;;;1970587;28;20025;-61
2023/06/02 03:15:42;;;;;;;14.45;7.32;;;11.00;99.90;;;;;;1970391;28;20029;-61
2023/06/02 03:16:41;;;;;;;18.08;7.40;;;10.90;99.90;;;;;;1971996;28;20093;-62
2023/06/02 03:17:41;;;;;;;20.73;7.88;;;11.00;99.90;;;;;;1979981;28;20401;-61
2023/06/02 03:18:39;;;;;;;11.10;7.40;;;10.90;99.90;;;;;;1974375;28;20017;-61
2023/06/02 03:19:37;;;;;;;12.20;7.35;;;10.90;99.90;;;;;;1969199;28;20283;-61
2023/06/02 03:20:36;;;;;;;15.25;7.80;;;10.90;99.90;;;;;;1962483;28;20021;-62
2023/06/02 03:21:41;;;;;;;14.38;7.32;;;10.90;99.90;;;;;;1963325;28;20424;-61
2023/06/02 03:22:39;;;;;;;14.20;7.70;;;10.90;99.90;;;;;;1971731;28;20030;-62
2023/06/02 03:23:37;;;;;;;15.30;8.75;;;10.90;99.90;;;;;;1972427;28;20025;-62
2023/06/02 03:24:35;;;;;;;20.00;8.30;;;10.80;99.90;;;;;;1972613;28;20017;-61
2023/06/02 03:25:32;;;;;;;16.90;7.65;;;10.90;99.90;;;;;;1966401;28;20021;-61
2023/06/02 03:26:30;;;;;;;16.08;8.35;;;10.90;99.90;;;;;;1970695;28;20345;-62
2023/06/02 03:27:27;;;;;;;21.15;7.93;;;10.90;99.90;;;;;;1972546;28;20027;-61
2023/06/02 03:28:25;;;;;;;20.83;8.52;;;10.90;99.90;;;;;;1972689;28;20041;-61
2023/06/02 03:29:22;;;;;;;17.08;8.55;;;10.80;99.90;;;;;;1967627;28;20025;-62
2023/06/02 03:30:20;;;;;;;13.95;8.05;;;10.80;99.90;;;;;;1968244;28;20036;-62
2023/06/02 03:31:19;;;;;;;19.42;9.50;;;10.90;99.90;;;;;;1972507;28;20506;-62
2023/06/02 03:32:16;;;;;;;13.25;8.32;;;10.90;99.90;;;;;;1974837;28;20375;-61
2023/06/02 03:33:14;;;;;;;17.50;8.02;;;10.90;99.90;;;;;;1971295;28;20022;-62
2023/06/02 03:34:11;;;;;;;18.05;9.60;;;10.80;99.90;;;;;;1973092;28;20506;-61
2023/06/02 03:35:09;;;;;;;24.98;9.27;;;10.90;99.90;;;;;;1968533;28;20017;-61
2023/06/02 03:36:07;;;;;;;16.90;8.13;;;10.80;99.90;;;;;;1963537;28;20022;-62
2023/06/02 03:37:09;;;;;;;13.85;8.88;;;10.80;99.90;;;;;;1963089;28;20057;-61
2023/06/02 03:38:07;;;;;;;19.38;8.90;;;10.80;99.90;;;;;;1971192;28;20034;-62
2023/06/02 03:39:05;;;;;;;17.45;9.38;;;10.80;99.90;;;;;;1967723;28;20021;-61
2023/06/02 03:40:07;;;;;;;15.82;8.82;;;10.80;99.90;;;;;;1954220;28;20453;-61
2023/06/02 03:41:05;;;;;;;17.52;9.02;;;10.80;99.90;;;;;;1970812;28;20145;-62
2023/06/02 03:42:02;;;;;;;18.50;9.27;;;10.80;99.90;;;;;;1971157;28;20463;-62
2023/06/02 03:43:00;;;;;;;18.48;9.65;;;10.80;99.90;;;;;;1969275;28;20032;-61
2023/06/02 03:43:58;;;;;;;14.57;8.68;;;10.80;99.90;;;;;;1970977;28;20081;-61
2023/06/02 03:44:55;;;;;;;15.48;9.18;;;10.90;99.90;;;;;;1971963;28;20637;-61
2023/06/02 03:45:53;;;;;;;16.85;9.75;;;10.90;99.90;;;;;;1968908;28;20018;-61
2023/06/02 03:46:50;;;;;;;17.30;10.38;;;10.90;99.90;;;;;;1972136;28;20029;-61
2023/06/02 03:47:48;;;;;;;21.83;10.73;;;10.80;99.90;;;;;;1970176;28;20033;-61
2023/06/02 03:48:45;;;;;;;18.45;10.20;;;10.80;99.90;;;;;;1968264;28;20107;-61
2023/06/02 03:49:43;;;;;;;29.48;12.02;;;10.90;99.90;;;;;;1972668;28;20036;-62
2023/06/02 03:50:41;;;;;;;20.02;10.55;;;10.90;99.90;;;;;;1972304;28;20434;-61
2023/06/02 03:51:42;;;;;;;27.20;10.60;;;10.90;99.90;;;;;;1974905;28;20451;-61
2023/06/02 03:52:39;;;;;;;23.20;10.38;;;10.80;99.90;;;;;;1973560;28;20024;-62
2023/06/02 03:53:37;;;;;;;17.63;9.55;;;10.90;99.90;;;;;;1971947;28;20025;-62
2023/06/02 03:54:34;;;;;;;19.65;10.15;;;10.90;99.90;;;;;;1972192;28;20030;-62
2023/06/02 03:55:32;;;;;;;17.50;10.18;;;10.90;99.90;;;;;;1969048;28;20030;-61
2023/06/02 03:56:30;;;;;;;21.30;11.75;;;10.90;99.90;;;;;;1969670;28;20101;-62
2023/06/02 03:57:27;;;;;;;16.95;10.63;;;10.90;99.90;;;;;;1971259;28;20025;-61
2023/06/02 03:58:25;;;;;;;25.13;11.32;;;10.90;99.90;;;;;;1972332;28;20025;-62
2023/06/02 03:59:23;;;;;;;15.15;10.40;;;10.90;99.90;;;;;;1971966;28;20017;-61
2023/06/02 04:00:20;;;;;;;15.18;10.20;;;10.80;99.90;;;;;;1970378;28;20025;-61
2023/06/02 04:01:18;;;;;;;19.67;10.85;;;10.90;99.90;;;;;;1962812;28;20121;-62
2023/06/02 04:02:15;;;;;;;19.27;11.02;;;10.90;99.90;;;;;;1956121;28;20023;-62
2023/06/02 04:03:13;;;;;;;15.45;10.82;;;10.90;99.90;;;;;;1961491;28;20510;-62
2023/06/02 04:04:11;;;;;;;18.08;11.10;;;10.90;99.90;;;;;;1970772;28;20079;-62
2023/06/02 04:05:11;;;;;;;24.17;10.88;;;10.80;99.90;;;;;;1971828;28;20025;-62
2023/06/02 04:06:08;;;;;;;24.33;12.07;;;10.80;99.90;;;;;;1969649;28;20037;-62
2023/06/02 04:07:06;;;;;;;19.98;11.15;;;10.80;99.90;;;;;;1970607;28;20030;-61
2023/06/02 04:08:04;;;;;;;14.95;10.70;;;10.80;99.90;;;;;;1969133;28;20104;-62
2023/06/02 04:09:01;;;;;;;20.00;12.10;;;10.90;99.90;;;;;;1969074;28;20033;-62
2023/06/02 04:09:59;;;;;;;24.13;12.18;;;10.90;99.90;;;;;;1978676;28;20136;-62
2023/06/02 04:10:57;;;;;;;22.70;12.30;;;10.80;99.90;;;;;;1971643;28;20052;-61
2023/06/02 04:11:54;;;;;;;19.92;12.90;;;10.80;99.90;;;;;;1971945;28;20029;-62
2023/06/02 04:12:52;;;;;;;22.75;13.25;;;10.80;99.90;;;;;;1970810;28;20027;-62
2023/06/02 04:13:49;;;;;;;23.98;12.80;;;10.80;99.90;;;;;;1972132;28;20026;-61
2023/06/02 04:14:47;;;;;;;20.05;11.93;;;10.80;99.90;;;;;;1971069;28;20037;-62
2023/06/02 04:15:45;;;;;;;20.55;11.90;;;10.80;99.90;;;;;;1971010;28;20049;-61
2023/06/02 04:16:42;;;;;;;20.98;12.43;;;10.80;99.90;;;;;;1970508;28;20797;-62
2023/06/02 04:17:40;;;;;;;20.90;11.63;;;10.80;99.90;;;;;;1971668;28;20032;-62
2023/06/02 04:18:38;;;;;;;20.45;11.30;;;10.80;99.90;;;;;;1970127;28;20092;-62
2023/06/02 04:19:37;;;;;;;21.38;10.38;;;10.80;99.90;;;;;;1973452;28;20017;-62
2023/06/02 04:20:34;;;;;;;16.83;10.45;;;10.90;99.90;;;;;;1970766;28;20013;-62
2023/06/02 04:21:32;;;;;;;16.10;9.60;;;10.90;99.90;;;;;;1962315;28;20029;-62
2023/06/02 04:22:29;;;;;;;17.33;10.85;;;10.90;99.90;;;;;;1968655;28;20092;-62
2023/06/02 04:23:27;;;;;;;25.77;10.25;;;10.80;99.90;;;;;;1969827;28;20025;-62
2023/06/02 04:24:25;;;;;;;17.27;9.90;;;10.90;99.90;;;;;;1970403;28;20037;-62
2023/06/02 04:25:22;;;;;;;20.30;9.90;;;10.90;99.90;;;;;;1974151;28;20466;-62
2023/06/02 04:26:20;;;;;;;16.75;10.60;;;10.90;99.90;;;;;;1972152;28;20029;-61
2023/06/02 04:27:18;;;;;;;16.90;9.68;;;10.90;99.90;;;;;;1972316;28;20591;-61
2023/06/02 04:28:16;;;;;;;15.77;9.82;;;10.90;99.90;;;;;;1970591;28;20025;-61
2023/06/02 04:29:13;;;;;;;16.02;9.27;;;10.90;99.90;;;;;;1969612;28;20036;-61
2023/06/02 04:30:11;;;;;;;18.17;9.48;;;10.90;99.90;;;;;;1972106;28;21759;-62
2023/06/02 04:31:11;;;;;;;17.88;9.93;;;10.90;99.90;;;;;;1969150;28;20030;-61
2023/06/02 04:32:08;;;;;;;19.70;8.85;;;10.90;99.90;;;;;;1969660;28;20029;-62
2023/06/02 04:33:06;;;;;;;17.27;9.93;;;10.90;99.90;;;;;;1973753;28;20127;-62
2023/06/02 04:34:04;;;;;;;15.80;8.57;;;10.90;99.90;;;;;;1954630;28;20034;-62
2023/06/02 04:35:03;;;;;;;21.85;9.52;;;10.90;99.90;;;;;;1964104;28;20029;-61
2023/06/02 04:36:00;;;;;;;15.05;8.68;;;10.90;99.90;;;;;;1968510;28;20030;-62
2023/06/02 04:36:58;;;;;;;17.88;8.82;;;10.90;99.90;;;;;;1969876;28;20017;-61
2023/06/02 04:37:56;;;;;;;16.10;9.07;;;10.90;99.90;;;;;;1973377;28;20033;-62
2023/06/02 04:38:53;;;;;;;18.02;8.82;;;10.90;99.90;;;;;;1972891;28;20120;-61
2023/06/02 04:39:52;;;;;;;16.80;9.80;;;10.90;99.90;;;;;;1969594;28;20030;-62
2023/06/02 04:40:50;;;;;;;14.75;8.70;;;10.90;99.90;;;;;;1971543;28;20113;-62
2023/06/02 04:41:49;;;;;;;20.13;9.30;;;10.90;99.90;;;;;;1971785;28;20022;-62
2023/06/02 04:42:46;;;;;;;16.00;9.38;;;10.90;99.90;;;;;;1973481;28;20024;-62
2023/06/02 04:43:44;;;;;;;16.35;9.32;;;10.70;99.90;;;;;;1972128;28;20496;-62
2023/06/02 04:44:44;;;;;;;19.55;8.63;;;10.90;99.90;;;;;;1971955;28;20026;-62
2023/06/02 04:45:45;;;;;;;15.82;9.68;;;10.90;99.90;;;;;;1969114;28;20474;-62
2023/06/02 04:46:43;;;;;;;17.67;9.73;;;10.90;99.90;;;;;;1965778;28;20017;-62
2023/06/02 04:47:41;;;;;;;20.95;10.07;;;10.90;99.90;;;;;;1972254;28;20423;-62
2023/06/02 04:48:40;;;;;;;21.67;9.25;;;10.90;99.90;;;;;;1972371;28;20029;-62
2023/06/02 04:49:37;;;;;;;16.48;8.60;;;11.00;99.90;;;;;;1972897;28;20515;-61
2023/06/02 04:50:35;;;;;;;17.23;8.13;;;10.90;99.90;;;;;;1971863;28;20029;-61
2023/06/02 04:51:32;;;;;;;24.10;8.48;;;10.90;99.90;;;;;;1964433;28;20087;-62
2023/06/02 04:52:30;;;;;;;22.15;8.90;;;10.90;99.90;;;;;;1964178;28;20407;-62
2023/06/02 04:53:28;;;;;;;16.15;8.43;;;10.90;99.90;;;;;;1970313;28;20018;-62
2023/06/02 04:54:25;;;;;;;15.38;8.57;;;10.90;99.90;;;;;;1963184;28;20490;-61
2023/06/02 04:55:23;;;;;;;21.58;8.88;;;11.10;99.90;;;;;;1962318;28;20157;-61
2023/06/02 04:56:22;;;;;;;17.98;9.40;;;10.90;99.90;;;;;;1969778;28;20096;-62
2023/06/02 04:57:20;;;;;;;24.23;9.18;;;10.90;99.90;;;;;;1970595;28;20026;-61
2023/06/02 04:58:17;;;;;;;16.27;9.20;;;10.90;99.90;;;;;;1971360;28;20036;-62